Time;durP1;ratioP1;P1;durP2;ratioP2;P2;SDS_P1;SDS_P2;PMS_P1;PMS_P2;Temp;Humidity;BMP_temperature;BMP_pressure;BME280_temperature;BME280_humidity;BME280_pressure;Samples;Min_cycle;Max_cycle;Signal;HPM_P1;HPM_P2
2022/10/05 00:00:42;;;;;;;1999.90;999.90;;;;;;;;;;5072939;28;20433;-71
2022/10/05 00:03:10;;;;;;;1999.90;999.90;;;;;;;;;;5032799;28;20912;-70
2022/10/05 00:05:38;;;;;;;1999.90;999.90;;;;;;;;;;5053500;28;20396;-70
2022/10/05 00:08:11;;;;;;;1999.90;999.90;;;;;;;;;;5049769;28;20478;-71
2022/10/05 00:10:40;;;;;;;1999.90;999.90;;;;;;;;;;5069183;28;20474;-71
2022/10/05 00:13:11;;;;;;;1999.90;999.90;;;;;;;;;;5065356;28;20454;-71
2022/10/05 00:15:40;;;;;;;1999.90;999.90;;;;;;;;;;5053082;28;20415;-71
2022/10/05 00:18:11;;;;;;;1999.90;999.90;;;;;;;;;;5069877;28;20467;-71
2022/10/05 00:20:40;;;;;;;1999.90;999.90;;;;;;;;;;5049987;28;20861;-71
2022/10/05 00:23:13;;;;;;;1999.90;999.90;;;;;;;;;;5068867;28;20955;-71
2022/10/05 00:25:41;;;;;;;1999.90;999.90;;;;;;;;;;5050884;28;20391;-71
2022/10/05 00:28:14;;;;;;;1999.90;999.90;;;;;;;;;;5048384;28;20849;-71
2022/10/05 00:30:43;;;;;;;1999.90;999.90;;;;;;;;;;5050757;28;21134;-71
2022/10/05 00:33:11;;;;;;;1999.90;999.90;;;;;;;;;;5067487;28;20461;-71
2022/10/05 00:35:39;;;;;;;1999.90;999.90;;;;;;;;;;5036587;28;20441;-71
2022/10/05 00:38:07;;;;;;;1999.90;999.90;;;;;;;;;;5051972;28;20411;-71
2022/10/05 00:40:43;;;;;;;1999.90;999.90;;;;;;;;;;5058794;28;20464;-71
2022/10/05 00:43:18;;;;;;;1999.90;999.90;;;;;;;;;;5047204;28;20421;-71
2022/10/05 00:45:48;;;;;;;1999.90;999.90;;;;;;;;;;5066164;28;20530;-71
2022/10/05 00:48:19;;;;;;;1999.90;999.90;;;;;;;;;;5066743;28;20484;-72
2022/10/05 00:50:54;;;;;;;1999.90;999.90;;;;;;;;;;5049769;28;22313;-71
2022/10/05 00:53:29;;;;;;;1999.90;999.90;;;;;;;;;;5057246;28;21676;-70
2022/10/05 00:56:00;;;;;;;1999.90;999.90;;;;;;;;;;5045668;28;20411;-71
2022/10/05 00:58:32;;;;;;;1999.90;999.90;;;;;;;;;;5047744;28;20414;-71
2022/10/05 01:01:06;;;;;;;1999.90;999.90;;;;;;;;;;5043140;28;20492;-71
2022/10/05 01:03:39;;;;;;;1999.90;999.90;;;;;;;;;;5068042;28;20403;-71
2022/10/05 01:06:12;;;;;;;1999.90;999.90;;;;;;;;;;5052918;28;20395;-71
2022/10/05 01:08:43;;;;;;;1999.90;999.90;;;;;;;;;;5063860;28;20415;-71
2022/10/05 01:11:13;;;;;;;1999.90;999.90;;;;;;;;;;5048696;28;20415;-71
2022/10/05 01:13:47;;;;;;;1999.90;999.90;;;;;;;;;;5034541;28;20433;-72
2022/10/05 01:16:19;;;;;;;1999.90;999.90;;;;;;;;;;5054610;28;21127;-71
2022/10/05 01:18:51;;;;;;;1999.90;999.90;;;;;;;;;;5052779;28;20504;-71
2022/10/05 01:21:20;;;;;;;1999.90;999.90;;;;;;;;;;5052221;28;20400;-72
2022/10/05 01:24:05;;;;;;;1999.90;999.90;;;;;;;;;;5065269;28;20416;-71
2022/10/05 01:26:52;;;;;;;1999.90;999.90;;;;;;;;;;5071245;28;20402;-71
2022/10/05 01:29:22;;;;;;;1999.90;999.90;;;;;;;;;;5035782;28;20405;-71
2022/10/05 01:31:53;;;;;;;1999.90;999.90;;;;;;;;;;5048162;28;20391;-71
2022/10/05 01:34:26;;;;;;;1999.90;999.90;;;;;;;;;;5056641;28;20394;-70
2022/10/05 01:36:58;;;;;;;1999.90;999.90;;;;;;;;;;5047926;28;20476;-70
2022/10/05 01:39:33;;;;;;;1999.90;999.90;;;;;;;;;;5035750;28;20529;-71
2022/10/05 01:42:03;;;;;;;1999.90;999.90;;;;;;;;;;5053838;28;21156;-70
2022/10/05 01:44:36;;;;;;;1999.90;999.90;;;;;;;;;;5064383;28;20408;-71
2022/10/05 01:47:07;;;;;;;1999.90;999.90;;;;;;;;;;5068157;28;20406;-71
2022/10/05 01:49:37;;;;;;;1999.90;999.90;;;;;;;;;;5046696;28;20409;-72
2022/10/05 01:52:11;;;;;;;1999.90;999.90;;;;;;;;;;5045789;28;20476;-71
2022/10/05 01:54:44;;;;;;;1999.90;999.90;;;;;;;;;;5033537;28;20904;-71
2022/10/05 01:57:16;;;;;;;1999.90;999.90;;;;;;;;;;5058879;28;20442;-71
2022/10/05 01:59:54;;;;;;;1999.90;999.90;;;;;;;;;;5049308;28;20412;-70
2022/10/05 02:02:23;;;;;;;1999.90;999.90;;;;;;;;;;5045029;28;20413;-71
2022/10/05 02:04:53;;;;;;;1999.90;999.90;;;;;;;;;;5031225;28;20394;-71
2022/10/05 02:07:29;;;;;;;1999.90;999.90;;;;;;;;;;5049573;28;20407;-71
2022/10/05 02:09:59;;;;;;;1999.90;999.90;;;;;;;;;;5036754;28;20453;-71
2022/10/05 02:12:29;;;;;;;1999.90;999.90;;;;;;;;;;5067141;28;20915;-72
2022/10/05 02:15:02;;;;;;;1999.90;999.90;;;;;;;;;;5043938;28;20439;-71
2022/10/05 02:17:33;;;;;;;1999.90;999.90;;;;;;;;;;5057708;28;20401;-70
2022/10/05 02:20:03;;;;;;;1999.90;999.90;;;;;;;;;;5034502;28;20406;-70
2022/10/05 02:22:33;;;;;;;1999.90;999.90;;;;;;;;;;5052105;28;20409;-71
2022/10/05 02:25:05;;;;;;;1999.90;999.90;;;;;;;;;;5060507;28;20430;-70
2022/10/05 02:27:42;;;;;;;1999.90;999.90;;;;;;;;;;5047841;28;20774;-70
2022/10/05 02:30:12;;;;;;;1999.90;999.90;;;;;;;;;;5058044;28;20414;-70
2022/10/05 02:32:48;;;;;;;1999.90;999.90;;;;;;;;;;5043183;28;21632;-72
2022/10/05 02:35:16;;;;;;;1999.90;999.90;;;;;;;;;;5058551;28;20394;-71
2022/10/05 02:37:49;;;;;;;1999.90;999.90;;;;;;;;;;5051415;28;20549;-70
2022/10/05 02:40:22;;;;;;;1999.90;999.90;;;;;;;;;;5050822;28;20843;-71
2022/10/05 02:42:55;;;;;;;1999.90;999.90;;;;;;;;;;5034249;28;20392;-71
2022/10/05 02:45:43;;;;;;;1999.90;999.90;;;;;;;;;;5061354;28;20405;-72
2022/10/05 02:48:14;;;;;;;1999.90;999.90;;;;;;;;;;5052009;28;20455;-71
2022/10/05 02:50:47;;;;;;;1999.90;999.90;;;;;;;;;;5050109;28;20407;-71
2022/10/05 02:53:19;;;;;;;1999.90;999.90;;;;;;;;;;5043875;28;20388;-71
2022/10/05 02:55:53;;;;;;;1999.90;999.90;;;;;;;;;;5061435;28;20432;-70
2022/10/05 02:58:23;;;;;;;1999.90;999.90;;;;;;;;;;5063891;28;20406;-71
2022/10/05 03:00:57;;;;;;;1999.90;999.90;;;;;;;;;;5048401;28;20894;-70
2022/10/05 03:03:28;;;;;;;1999.90;999.90;;;;;;;;;;5044456;28;20381;-70
2022/10/05 03:05:59;;;;;;;1999.90;999.90;;;;;;;;;;5063738;28;20445;-70
2022/10/05 03:08:31;;;;;;;1999.90;999.90;;;;;;;;;;5050825;28;20409;-71
2022/10/05 03:11:04;;;;;;;1999.90;999.90;;;;;;;;;;5073023;28;20415;-71
2022/10/05 03:13:35;;;;;;;1999.90;999.90;;;;;;;;;;5035527;28;20421;-70
2022/10/05 03:16:12;;;;;;;1999.90;999.90;;;;;;;;;;5047070;28;20416;-71
2022/10/05 03:18:48;;;;;;;1999.90;999.90;;;;;;;;;;5052291;28;20402;-71
2022/10/05 03:21:21;;;;;;;1999.90;999.90;;;;;;;;;;5058455;28;20426;-70
2022/10/05 03:23:53;;;;;;;1999.90;999.90;;;;;;;;;;5039573;28;20532;-70
2022/10/05 03:26:29;;;;;;;1999.90;999.90;;;;;;;;;;5064746;28;20423;-70
2022/10/05 03:29:00;;;;;;;1999.90;999.90;;;;;;;;;;5054488;28;20434;-72
2022/10/05 03:31:32;;;;;;;1999.90;999.90;;;;;;;;;;5061343;28;21145;-71
2022/10/05 03:34:01;;;;;;;1999.90;999.90;;;;;;;;;;5052274;28;20411;-71
2022/10/05 03:36:32;;;;;;;1999.90;999.90;;;;;;;;;;5046563;28;21364;-71
2022/10/05 03:39:02;;;;;;;1999.90;999.90;;;;;;;;;;5064077;28;20389;-71
2022/10/05 03:41:34;;;;;;;1999.90;999.90;;;;;;;;;;5059010;28;20925;-70
2022/10/05 03:44:24;;;;;;;1999.90;999.90;;;;;;;;;;5063115;28;20478;-71
2022/10/05 03:47:03;;;;;;;1999.90;999.90;;;;;;;;;;5044787;28;20432;-71
2022/10/05 03:49:36;;;;;;;1999.90;999.90;;;;;;;;;;5056157;28;20877;-70
2022/10/05 03:52:06;;;;;;;1999.90;999.90;;;;;;;;;;5059137;28;21765;-71
2022/10/05 03:54:36;;;;;;;1999.90;999.90;;;;;;;;;;5036618;28;20445;-70
2022/10/05 03:57:08;;;;;;;1999.90;999.90;;;;;;;;;;5033504;28;20567;-70
2022/10/05 03:59:39;;;;;;;1999.90;999.90;;;;;;;;;;5050333;28;20429;-72
2022/10/05 04:02:13;;;;;;;1999.90;999.90;;;;;;;;;;5041994;28;20422;-72
2022/10/05 04:04:42;;;;;;;1999.90;999.90;;;;;;;;;;5053187;28;20892;-72
2022/10/05 04:07:15;;;;;;;1999.90;999.90;;;;;;;;;;5035145;28;20443;-72
2022/10/05 04:09:45;;;;;;;1999.90;999.90;;;;;;;;;;5045612;28;20402;-74
2022/10/05 04:12:16;;;;;;;1999.90;999.90;;;;;;;;;;5048903;28;20537;-73
2022/10/05 04:14:45;;;;;;;1999.90;999.90;;;;;;;;;;5063027;28;20967;-72
2022/10/05 04:17:16;;;;;;;1999.90;999.90;;;;;;;;;;5070899;28;20502;-71
2022/10/05 04:19:51;;;;;;;1999.90;999.90;;;;;;;;;;5063582;28;20399;-73
2022/10/05 04:22:22;;;;;;;1999.90;999.90;;;;;;;;;;5070268;28;20493;-74
2022/10/05 04:24:51;;;;;;;1999.90;999.90;;;;;;;;;;5055391;28;20433;-74
2022/10/05 04:27:21;;;;;;;1999.90;999.90;;;;;;;;;;5038887;28;20795;-74
2022/10/05 04:29:54;;;;;;;1999.90;999.90;;;;;;;;;;5044549;28;20825;-74
2022/10/05 04:32:28;;;;;;;1999.90;999.90;;;;;;;;;;5047649;28;20899;-74
2022/10/05 04:34:59;;;;;;;1999.90;999.90;;;;;;;;;;5061742;28;21157;-74
2022/10/05 04:37:34;;;;;;;1999.90;999.90;;;;;;;;;;5048422;28;20889;-74
2022/10/05 04:40:08;;;;;;;1999.90;999.90;;;;;;;;;;5031411;28;20405;-74
2022/10/05 04:42:39;;;;;;;1999.90;999.90;;;;;;;;;;5032062;28;20914;-73
2022/10/05 04:45:09;;;;;;;1999.90;999.90;;;;;;;;;;5030730;28;20441;-75
2022/10/05 04:47:50;;;;;;;1999.90;999.90;;;;;;;;;;5058453;28;20852;-75
2022/10/05 04:50:23;;;;;;;1999.90;999.90;;;;;;;;;;5061796;28;20521;-76
2022/10/05 04:53:08;;;;;;;1999.90;999.90;;;;;;;;;;5044742;28;20427;-76
2022/10/05 04:55:39;;;;;;;1999.90;999.90;;;;;;;;;;5050416;28;20390;-75
2022/10/05 04:58:12;;;;;;;1999.90;999.90;;;;;;;;;;5049229;28;20403;-75
2022/10/05 05:00:46;;;;;;;1999.90;999.90;;;;;;;;;;5033281;28;20993;-75
2022/10/05 05:03:29;;;;;;;1999.90;999.90;;;;;;;;;;5067203;28;20526;-75
2022/10/05 05:05:59;;;;;;;1999.90;999.90;;;;;;;;;;5032368;28;20395;-75
2022/10/05 05:08:56;;;;;;;1999.90;999.90;;;;;;;;;;5046157;28;21022;-76
2022/10/05 05:11:30;;;;;;;1999.90;999.90;;;;;;;;;;5055819;28;20416;-75
2022/10/05 05:14:05;;;;;;;1999.90;999.90;;;;;;;;;;5061638;28;20405;-76
2022/10/05 05:16:35;;;;;;;1999.90;999.90;;;;;;;;;;5048293;28;20897;-76
2022/10/05 05:19:26;;;;;;;1999.90;999.90;;;;;;;;;;5061992;28;20475;-76
2022/10/05 05:22:00;;;;;;;1999.90;999.90;;;;;;;;;;5062844;28;20409;-76
2022/10/05 05:24:36;;;;;;;1999.90;999.90;;;;;;;;;;5029444;28;20943;-76
2022/10/05 05:27:09;;;;;;;1999.90;999.90;;;;;;;;;;5067902;28;20968;-76
2022/10/05 05:29:43;;;;;;;1999.90;999.90;;;;;;;;;;5052545;28;20394;-75
2022/10/05 05:32:16;;;;;;;1999.90;999.90;;;;;;;;;;5058487;28;20405;-75
2022/10/05 05:34:47;;;;;;;1999.90;999.90;;;;;;;;;;5050290;28;20400;-76
2022/10/05 05:37:22;;;;;;;1999.90;999.90;;;;;;;;;;5046775;28;20440;-78
2022/10/05 05:39:55;;;;;;;1999.90;999.90;;;;;;;;;;5065334;28;20392;-75
2022/10/05 05:42:31;;;;;;;1999.90;999.90;;;;;;;;;;5076603;28;20436;-75
2022/10/05 05:45:03;;;;;;;1999.90;999.90;;;;;;;;;;5054748;28;20401;-76
2022/10/05 05:47:33;;;;;;;1999.90;999.90;;;;;;;;;;5052084;28;20867;-77
2022/10/05 05:50:07;;;;;;;1999.90;999.90;;;;;;;;;;5044715;28;20411;-77
2022/10/05 05:52:41;;;;;;;1999.90;999.90;;;;;;;;;;5064234;28;20520;-77
2022/10/05 05:55:14;;;;;;;1999.90;999.90;;;;;;;;;;5058174;28;20844;-77
2022/10/05 05:57:44;;;;;;;1999.90;999.90;;;;;;;;;;5048650;28;20429;-76
2022/10/05 06:00:18;;;;;;;1999.90;999.90;;;;;;;;;;5047559;28;20432;-76
2022/10/05 06:02:54;;;;;;;1999.90;999.90;;;;;;;;;;5045380;28;20410;-76
2022/10/05 06:05:33;;;;;;;1999.90;999.90;;;;;;;;;;5064022;28;20414;-76
2022/10/05 06:08:07;;;;;;;1999.90;999.90;;;;;;;;;;5050490;28;20381;-78
2022/10/05 06:10:40;;;;;;;1999.90;999.90;;;;;;;;;;5051267;28;20394;-76
2022/10/05 06:13:13;;;;;;;1999.90;999.90;;;;;;;;;;5045260;28;20417;-76
2022/10/05 06:15:42;;;;;;;1999.90;999.90;;;;;;;;;;5053447;28;20466;-76
2022/10/05 06:18:12;;;;;;;1999.90;999.90;;;;;;;;;;5060179;28;20396;-76
2022/10/05 06:20:41;;;;;;;1999.90;999.90;;;;;;;;;;5049466;28;20457;-76
2022/10/05 06:23:14;;;;;;;1999.90;999.90;;;;;;;;;;5048159;28;20903;-76
2022/10/05 06:25:49;;;;;;;1999.90;999.90;;;;;;;;;;5046587;28;20427;-76
2022/10/05 06:28:17;;;;;;;1999.90;999.90;;;;;;;;;;5068664;28;20437;-76
2022/10/05 06:30:57;;;;;;;1999.90;999.90;;;;;;;;;;5044470;28;20868;-76
2022/10/05 06:33:34;;;;;;;1999.90;999.90;;;;;;;;;;5063583;28;20405;-77
2022/10/05 06:36:12;;;;;;;1999.90;999.90;;;;;;;;;;5060579;28;20409;-76
2022/10/05 06:38:53;;;;;;;1999.90;999.90;;;;;;;;;;5041110;28;20383;-76
2022/10/05 06:41:28;;;;;;;1999.90;999.90;;;;;;;;;;5043830;28;20397;-77
2022/10/05 06:43:58;;;;;;;1999.90;999.90;;;;;;;;;;5060786;28;20421;-77
2022/10/05 06:46:48;;;;;;;1999.90;999.90;;;;;;;;;;5048284;28;20411;-76
2022/10/05 06:49:45;;;;;;;1999.90;999.90;;;;;;;;;;5066622;28;20899;-76
2022/10/05 06:52:37;;;;;;;1999.90;999.90;;;;;;;;;;5044567;28;20428;-77
2022/10/05 06:55:16;;;;;;;1999.90;999.90;;;;;;;;;;5045362;28;20405;-73
2022/10/05 06:57:53;;;;;;;1999.90;999.90;;;;;;;;;;5045052;28;20464;-76
2022/10/05 07:00:21;;;;;;;1999.90;999.90;;;;;;;;;;5048954;28;20829;-75
2022/10/05 07:02:54;;;;;;;1999.90;999.90;;;;;;;;;;5044361;28;20363;-76
2022/10/05 07:05:33;;;;;;;1999.90;999.90;;;;;;;;;;5062149;28;20405;-76
2022/10/05 07:08:04;;;;;;;1999.90;999.90;;;;;;;;;;5058833;28;20507;-75
2022/10/05 07:10:37;;;;;;;1999.90;999.90;;;;;;;;;;5040400;28;20402;-75
2022/10/05 07:13:29;;;;;;;1999.90;999.90;;;;;;;;;;5059277;28;20401;-75
2022/10/05 07:16:00;;;;;;;1999.90;999.90;;;;;;;;;;5046273;28;20385;-76
2022/10/05 07:18:34;;;;;;;1999.90;999.90;;;;;;;;;;5072392;28;20417;-75
2022/10/05 07:21:06;;;;;;;1999.90;999.90;;;;;;;;;;5051165;28;20384;-74
2022/10/05 07:23:44;;;;;;;1999.90;999.90;;;;;;;;;;5054512;28;20459;-76
2022/10/05 07:26:17;;;;;;;1999.90;999.90;;;;;;;;;;5060794;28;20423;-75
2022/10/05 07:28:47;;;;;;;1999.90;999.90;;;;;;;;;;5071760;28;20712;-75
2022/10/05 07:31:21;;;;;;;1999.90;999.90;;;;;;;;;;5032896;28;20395;-74
2022/10/05 07:33:52;;;;;;;1999.90;999.90;;;;;;;;;;5032404;28;20459;-75
2022/10/05 07:39:17;;;;;;;1999.90;999.90;;;;;;;;;;5052773;28;20422;-76
2022/10/05 07:41:50;;;;;;;1999.90;999.90;;;;;;;;;;5027889;28;20453;-76
2022/10/05 07:44:21;;;;;;;1999.90;999.90;;;;;;;;;;5035716;28;21351;-77
2022/10/05 07:46:51;;;;;;;1999.90;999.90;;;;;;;;;;5042430;28;20403;-77
2022/10/05 07:49:31;;;;;;;1999.90;999.90;;;;;;;;;;5052271;28;20409;-77
2022/10/05 07:52:01;;;;;;;1999.90;999.90;;;;;;;;;;5045337;28;20396;-77
2022/10/05 07:54:32;;;;;;;1999.90;999.90;;;;;;;;;;5064728;28;20415;-77
2022/10/05 07:57:03;;;;;;;1999.90;999.90;;;;;;;;;;5059408;28;20911;-77
2022/10/05 07:59:34;;;;;;;1999.90;999.90;;;;;;;;;;5058132;28;20429;-76
2022/10/05 08:02:06;;;;;;;1999.90;999.90;;;;;;;;;;5049585;28;20892;-76
2022/10/05 08:04:39;;;;;;;1999.90;999.90;;;;;;;;;;5057738;28;20425;-79
2022/10/05 08:07:12;;;;;;;1999.90;999.90;;;;;;;;;;5044760;28;20418;-76
2022/10/05 08:09:42;;;;;;;1999.90;999.90;;;;;;;;;;5089727;28;20454;-77
2022/10/05 08:12:18;;;;;;;1999.90;999.90;;;;;;;;;;5070506;28;20373;-77
2022/10/05 08:14:53;;;;;;;1999.90;999.90;;;;;;;;;;5060341;28;20370;-77
2022/10/05 08:17:25;;;;;;;1999.90;999.90;;;;;;;;;;5061827;28;20387;-76
2022/10/05 08:20:00;;;;;;;1999.90;999.90;;;;;;;;;;5058954;28;20475;-77
2022/10/05 08:22:29;;;;;;;1999.90;999.90;;;;;;;;;;5075278;28;20405;-76
2022/10/05 08:24:59;;;;;;;1999.90;999.90;;;;;;;;;;5058619;28;20438;-77
2022/10/05 08:27:32;;;;;;;1999.90;999.90;;;;;;;;;;5077870;28;20488;-77
2022/10/05 08:30:01;;;;;;;1999.90;999.90;;;;;;;;;;5058338;28;20409;-77
2022/10/05 08:32:30;;;;;;;1999.90;999.90;;;;;;;;;;5076901;28;20390;-77
2022/10/05 08:35:01;;;;;;;1999.90;999.90;;;;;;;;;;5078382;28;20389;-78
2022/10/05 08:37:32;;;;;;;1999.90;999.90;;;;;;;;;;5074002;28;20398;-78
2022/10/05 08:40:02;;;;;;;1999.90;999.90;;;;;;;;;;5041323;28;21178;-78
2022/10/05 08:42:43;;;;;;;1999.90;999.90;;;;;;;;;;5075887;28;20360;-79
2022/10/05 08:45:32;;;;;;;1999.90;999.90;;;;;;;;;;5065473;28;21255;-78
2022/10/05 08:48:14;;;;;;;1999.90;999.90;;;;;;;;;;5051317;28;20404;-78
2022/10/05 08:50:57;;;;;;;1999.90;999.90;;;;;;;;;;5073860;28;20395;-79
2022/10/05 08:53:45;;;;;;;1999.90;999.90;;;;;;;;;;5054661;28;20363;-78
2022/10/05 08:56:30;;;;;;;1999.90;999.90;;;;;;;;;;5063351;28;21159;-78
2022/10/05 08:59:08;;;;;;;1999.90;999.90;;;;;;;;;;5074448;28;21297;-76
2022/10/05 09:01:42;;;;;;;1999.90;999.90;;;;;;;;;;5057049;28;20482;-76
2022/10/05 09:04:22;;;;;;;1999.90;999.90;;;;;;;;;;5055254;28;20397;-79
2022/10/05 09:07:07;;;;;;;1999.90;999.90;;;;;;;;;;5055717;28;20577;-77
2022/10/05 09:10:05;;;;;;;1999.90;999.90;;;;;;;;;;5038854;28;20519;-77
2022/10/05 09:12:50;;;;;;;1999.90;999.90;;;;;;;;;;4974606;28;20420;-76
2022/10/05 09:15:29;;;;;;;1999.90;999.90;;;;;;;;;;5043390;28;20375;-77
2022/10/05 09:18:14;;;;;;;1999.90;999.90;;;;;;;;;;5073218;28;20403;-77
2022/10/05 09:20:46;;;;;;;1999.90;999.90;;;;;;;;;;5057281;28;20383;-77
2022/10/05 09:23:21;;;;;;;1999.90;999.90;;;;;;;;;;5070660;28;20387;-77
2022/10/05 09:25:55;;;;;;;1999.90;999.90;;;;;;;;;;5075768;28;20844;-77
2022/10/05 09:28:24;;;;;;;1999.90;999.90;;;;;;;;;;5071292;28;20453;-77
2022/10/05 09:30:57;;;;;;;1999.90;999.90;;;;;;;;;;5053785;28;20381;-77
2022/10/05 09:33:40;;;;;;;1999.90;999.90;;;;;;;;;;5056587;28;20963;-78
2022/10/05 09:36:22;;;;;;;1999.90;999.90;;;;;;;;;;5065234;28;20461;-77
2022/10/05 09:39:03;;;;;;;1999.90;999.90;;;;;;;;;;5056956;28;20386;-79
2022/10/05 09:41:45;;;;;;;1999.90;999.90;;;;;;;;;;5060565;28;20415;-73
2022/10/05 09:44:40;;;;;;;1999.90;999.90;;;;;;;;;;5054869;28;20419;-75
2022/10/05 09:47:22;;;;;;;1999.90;999.90;;;;;;;;;;5013981;28;20756;-74
2022/10/05 09:50:11;;;;;;;1999.90;999.90;;;;;;;;;;5076377;28;20398;-75
2022/10/05 09:52:53;;;;;;;1999.90;999.90;;;;;;;;;;5042374;28;20440;-75
2022/10/05 09:55:30;;;;;;;1999.90;999.90;;;;;;;;;;5056297;28;20842;-76
2022/10/05 09:58:04;;;;;;;1999.90;999.90;;;;;;;;;;5070409;28;20374;-76
2022/10/05 10:00:42;;;;;;;1999.90;999.90;;;;;;;;;;5052732;28;20389;-75
2022/10/05 10:03:43;;;;;;;1999.90;999.90;;;;;;;;;;5065524;28;20390;-76
2022/10/05 10:06:22;;;;;;;1999.90;999.90;;;;;;;;;;5052866;28;20459;-75
2022/10/05 10:08:58;;;;;;;1999.90;999.90;;;;;;;;;;5076576;28;20910;-75
2022/10/05 10:11:46;;;;;;;1999.90;999.90;;;;;;;;;;5067793;28;20523;-75
2022/10/05 10:14:35;;;;;;;1999.90;999.90;;;;;;;;;;5043446;28;20394;-75
2022/10/05 10:17:08;;;;;;;1999.90;999.90;;;;;;;;;;5027062;28;20409;-75
2022/10/05 10:19:59;;;;;;;1999.90;999.90;;;;;;;;;;5038266;28;20407;-75
2022/10/05 10:22:45;;;;;;;1999.90;999.90;;;;;;;;;;5049660;28;20394;-75
2022/10/05 10:25:23;;;;;;;1999.90;999.90;;;;;;;;;;5036812;28;20455;-76
2022/10/05 10:28:04;;;;;;;1999.90;999.90;;;;;;;;;;5047210;28;20475;-76
2022/10/05 10:30:40;;;;;;;1999.90;999.90;;;;;;;;;;5053812;28;20421;-75
2022/10/05 10:33:17;;;;;;;1999.90;999.90;;;;;;;;;;5048696;28;20474;-75
2022/10/05 10:35:49;;;;;;;1999.90;999.90;;;;;;;;;;5061748;28;20447;-77
2022/10/05 10:38:29;;;;;;;1999.90;999.90;;;;;;;;;;5073964;28;20887;-75
2022/10/05 10:41:20;;;;;;;1999.90;999.90;;;;;;;;;;5070924;28;21134;-76
2022/10/05 10:44:10;;;;;;;1999.90;999.90;;;;;;;;;;5040330;28;20405;-75
2022/10/05 10:46:45;;;;;;;1999.90;999.90;;;;;;;;;;5035320;28;20422;-77
2022/10/05 10:49:19;;;;;;;1999.90;999.90;;;;;;;;;;5051693;28;20668;-76
2022/10/05 10:52:10;;;;;;;1999.90;999.90;;;;;;;;;;5066470;28;20431;-75
2022/10/05 10:54:50;;;;;;;1999.90;999.90;;;;;;;;;;5031793;28;20434;-75
2022/10/05 10:57:21;;;;;;;1999.90;999.90;;;;;;;;;;5048411;28;20477;-76
2022/10/05 11:00:02;;;;;;;1999.90;999.90;;;;;;;;;;5049688;28;20963;-75
2022/10/05 11:02:41;;;;;;;1999.90;999.90;;;;;;;;;;5066219;28;20818;-75
2022/10/05 11:05:23;;;;;;;1999.90;999.90;;;;;;;;;;5058262;28;20410;-76
2022/10/05 11:08:15;;;;;;;1999.90;999.90;;;;;;;;;;5034109;28;20439;-75
2022/10/05 11:10:58;;;;;;;1999.90;999.90;;;;;;;;;;5050976;28;20406;-75
2022/10/05 11:13:31;;;;;;;1999.90;999.90;;;;;;;;;;5044311;28;20388;-76
2022/10/05 11:16:19;;;;;;;1999.90;999.90;;;;;;;;;;5066279;28;20481;-74
2022/10/05 11:19:07;;;;;;;1999.90;999.90;;;;;;;;;;5062083;28;20391;-74
2022/10/05 11:21:44;;;;;;;1999.90;999.90;;;;;;;;;;5019197;28;20402;-74
2022/10/05 11:24:37;;;;;;;1999.90;999.90;;;;;;;;;;5041211;28;20468;-74
2022/10/05 11:27:28;;;;;;;1999.90;999.90;;;;;;;;;;5060590;28;20406;-72
2022/10/05 11:30:14;;;;;;;1999.90;999.90;;;;;;;;;;5069013;28;20418;-74
2022/10/05 11:32:57;;;;;;;1999.90;999.90;;;;;;;;;;5057662;28;20691;-71
2022/10/05 11:35:35;;;;;;;1999.90;999.90;;;;;;;;;;5020570;28;20410;-71
2022/10/05 11:38:21;;;;;;;1999.90;999.90;;;;;;;;;;5053640;28;20328;-72
2022/10/05 11:41:04;;;;;;;1999.90;999.90;;;;;;;;;;5049034;28;20227;-75
2022/10/05 11:43:38;;;;;;;1999.90;999.90;;;;;;;;;;5055585;28;20313;-73
2022/10/05 11:46:10;;;;;;;1999.90;999.90;;;;;;;;;;5069992;28;20231;-74
2022/10/05 11:48:45;;;;;;;1999.90;999.90;;;;;;;;;;5074162;28;20413;-74
2022/10/05 11:51:34;;;;;;;1999.90;999.90;;;;;;;;;;5051201;28;20494;-74
2022/10/05 11:54:06;;;;;;;1999.90;999.90;;;;;;;;;;5059352;28;20243;-74
2022/10/05 11:56:39;;;;;;;1999.90;999.90;;;;;;;;;;5068668;28;20293;-73
2022/10/05 11:59:11;;;;;;;1999.90;999.90;;;;;;;;;;5052965;28;20326;-74
2022/10/05 12:01:43;;;;;;;1999.90;999.90;;;;;;;;;;5071095;28;20287;-74
2022/10/05 12:04:15;;;;;;;1999.90;999.90;;;;;;;;;;5073271;28;20255;-75
2022/10/05 12:06:51;;;;;;;1999.90;999.90;;;;;;;;;;5072028;28;20307;-75
2022/10/05 12:09:26;;;;;;;1999.90;999.90;;;;;;;;;;5066493;28;20322;-75
2022/10/05 12:12:07;;;;;;;1999.90;999.90;;;;;;;;;;5051440;28;20302;-74
2022/10/05 12:14:41;;;;;;;1999.90;999.90;;;;;;;;;;5051153;28;20243;-75
2022/10/05 12:17:15;;;;;;;1999.90;999.90;;;;;;;;;;5068147;28;20259;-75
2022/10/05 12:19:45;;;;;;;1999.90;999.90;;;;;;;;;;5072961;28;20236;-74
2022/10/05 12:22:15;;;;;;;1999.90;999.90;;;;;;;;;;5069575;28;20261;-74
2022/10/05 12:25:01;;;;;;;1999.90;999.90;;;;;;;;;;5055287;28;20402;-74
2022/10/05 12:27:33;;;;;;;1999.90;999.90;;;;;;;;;;5059045;28;20296;-74
2022/10/05 12:30:03;;;;;;;1999.90;999.90;;;;;;;;;;5057343;28;20399;-74
2022/10/05 12:32:33;;;;;;;1999.90;999.90;;;;;;;;;;5066124;28;20231;-74
2022/10/05 12:35:03;;;;;;;1999.90;999.90;;;;;;;;;;5069902;28;20262;-74
2022/10/05 12:37:41;;;;;;;1999.90;999.90;;;;;;;;;;5076769;28;20815;-74
2022/10/05 12:40:20;;;;;;;1999.90;999.90;;;;;;;;;;5067574;28;21138;-73
2022/10/05 12:42:51;;;;;;;1999.90;999.90;;;;;;;;;;5075562;28;20942;-74
2022/10/05 12:45:24;;;;;;;1999.90;999.90;;;;;;;;;;5053858;28;20232;-74
2022/10/05 12:48:01;;;;;;;1999.90;999.90;;;;;;;;;;5074026;28;20234;-74
2022/10/05 12:50:34;;;;;;;1999.90;999.90;;;;;;;;;;5068501;28;20227;-75
2022/10/05 12:53:07;;;;;;;1999.90;999.90;;;;;;;;;;5036172;28;20294;-74
2022/10/05 12:55:41;;;;;;;1999.90;999.90;;;;;;;;;;5051937;28;21171;-75
2022/10/05 12:58:18;;;;;;;1999.90;999.90;;;;;;;;;;5068706;28;20228;-75
2022/10/05 13:00:48;;;;;;;1999.90;999.90;;;;;;;;;;5035068;28;21008;-75
2022/10/05 13:03:19;;;;;;;1999.90;999.90;;;;;;;;;;5067666;28;20714;-74
2022/10/05 13:05:52;;;;;;;1999.90;999.90;;;;;;;;;;5052047;28;20238;-75
2022/10/05 13:08:23;;;;;;;1999.90;999.90;;;;;;;;;;5051613;28;20232;-75
2022/10/05 13:10:53;;;;;;;1999.90;999.90;;;;;;;;;;5068948;28;20750;-75
2022/10/05 13:13:32;;;;;;;1999.90;999.90;;;;;;;;;;5057576;28;20231;-73
2022/10/05 13:16:06;;;;;;;1999.90;999.90;;;;;;;;;;5048528;28;20282;-76
2022/10/05 13:18:40;;;;;;;1999.90;999.90;;;;;;;;;;5071218;28;20685;-77
2022/10/05 13:21:11;;;;;;;1999.90;999.90;;;;;;;;;;5063909;28;20307;-76
2022/10/05 13:23:46;;;;;;;1999.90;999.90;;;;;;;;;;5033319;28;20380;-76
2022/10/05 13:26:16;;;;;;;1999.90;999.90;;;;;;;;;;5058649;28;20223;-76
2022/10/05 13:28:50;;;;;;;1999.90;999.90;;;;;;;;;;5042733;28;20282;-76
2022/10/05 13:31:20;;;;;;;1999.90;999.90;;;;;;;;;;5074907;28;21433;-76
2022/10/05 13:33:56;;;;;;;1999.90;999.90;;;;;;;;;;5072663;28;20227;-76
2022/10/05 13:36:30;;;;;;;1999.90;999.90;;;;;;;;;;5063933;28;20239;-76
2022/10/05 13:38:58;;;;;;;1999.90;999.90;;;;;;;;;;5073831;28;20744;-77
2022/10/05 13:41:31;;;;;;;1999.90;999.90;;;;;;;;;;5067413;28;20238;-76
2022/10/05 13:44:06;;;;;;;1999.90;999.90;;;;;;;;;;5077823;28;20767;-78
2022/10/05 13:46:37;;;;;;;1999.90;999.90;;;;;;;;;;5044164;28;20281;-76
2022/10/05 13:49:15;;;;;;;1999.90;999.90;;;;;;;;;;5072013;28;20227;-76
2022/10/05 13:51:45;;;;;;;1999.90;999.90;;;;;;;;;;5051299;28;20270;-77
2022/10/05 13:54:14;;;;;;;1999.90;999.90;;;;;;;;;;5070824;28;20242;-76
2022/10/05 13:56:44;;;;;;;1999.90;999.90;;;;;;;;;;5051060;28;20294;-77
2022/10/05 13:59:18;;;;;;;1999.90;999.90;;;;;;;;;;5068306;28;20305;-77
2022/10/05 14:01:51;;;;;;;1999.90;999.90;;;;;;;;;;5071166;28;20333;-77
2022/10/05 14:04:20;;;;;;;1999.90;999.90;;;;;;;;;;5066917;28;20242;-78
2022/10/05 14:06:49;;;;;;;1999.90;999.90;;;;;;;;;;5069719;28;20227;-78
2022/10/05 14:09:27;;;;;;;1999.90;999.90;;;;;;;;;;5054313;28;20231;-78
2022/10/05 14:12:11;;;;;;;1999.90;999.90;;;;;;;;;;5053151;28;20312;-77
2022/10/05 14:14:45;;;;;;;1999.90;999.90;;;;;;;;;;5048192;28;20297;-77
2022/10/05 14:17:14;;;;;;;1999.90;999.90;;;;;;;;;;5072423;28;20363;-77
2022/10/05 14:19:43;;;;;;;1999.90;999.90;;;;;;;;;;5070870;28;20224;-77
2022/10/05 14:22:12;;;;;;;1999.90;999.90;;;;;;;;;;5066208;28;20255;-77
2022/10/05 14:24:47;;;;;;;1999.90;999.90;;;;;;;;;;5047354;28;20793;-77
2022/10/05 14:27:20;;;;;;;1999.90;999.90;;;;;;;;;;5049066;28;20231;-78